Time;durP1;ratioP1;P1;durP2;ratioP2;P2;SDS_P1;SDS_P2;PMS_P1;PMS_P2;Temp;Humidity;BMP_temperature;BMP_pressure;BME280_temperature;BME280_humidity;BME280_pressure;Samples;Min_cycle;Max_cycle;Signal;HPM_P1;HPM_P2
2023/05/30 00:00:57;;;;;;;14.57;2.97;;;;;;;-146.27;73.43;83033.09;5042392;28;20073;-69
2023/05/30 00:03:23;;;;;;;18.00;2.67;;;;;;;-146.27;73.84;83119.47;5038997;28;20405;-69
2023/05/30 00:05:49;;;;;;;15.80;2.20;;;;;;;-146.27;74.17;83103.41;5043542;28;20083;-69
2023/05/30 00:08:14;;;;;;;12.88;3.38;;;;;;;-146.27;75.34;83155.63;5046022;28;20068;-69
2023/05/30 00:10:39;;;;;;;14.40;2.42;;;;;;;-146.27;74.47;83139.56;5042603;28;20123;-69
2023/05/30 00:13:05;;;;;;;10.77;2.58;;;;;;;-146.27;75.04;83159.66;5049492;28;20536;-68
2023/05/30 00:15:31;;;;;;;16.50;2.38;;;;;;;-146.27;75.32;83161.66;5062478;28;20488;-68
2023/05/30 00:17:57;;;;;;;17.33;3.35;;;;;;;-146.27;75.17;83159.66;5036182;28;20037;-68
2023/05/30 00:20:22;;;;;;;11.55;2.78;;;;;;;-146.27;75.67;83179.75;5039699;28;20031;-68
2023/05/30 00:22:48;;;;;;;21.27;3.55;;;;;;;-146.27;75.34;83173.72;5035867;28;20013;-68
2023/05/30 00:25:14;;;;;;;13.25;2.72;;;;;;;-146.27;76.72;83155.63;5060897;28;20119;-68
2023/05/30 00:27:40;;;;;;;13.80;3.35;;;;;;;-146.27;76.66;83193.81;5037982;28;20148;-69
2023/05/30 00:30:06;;;;;;;16.10;2.60;;;;;;;-146.27;77.23;83111.44;5049273;28;20159;-68
2023/05/30 00:32:31;;;;;;;12.60;2.72;;;;;;;-146.27;77.53;83189.78;5043438;28;20021;-67
2023/05/30 00:34:57;;;;;;;13.73;2.90;;;;;;;-146.27;76.21;83207.88;5045959;28;20021;-67
2023/05/30 00:37:22;;;;;;;19.10;3.50;;;;;;;-146.27;76.69;83199.84;5042555;28;20633;-68
2023/05/30 00:39:47;;;;;;;7.85;2.60;;;;;;;-146.27;77.65;83203.88;5039909;28;20410;-68
2023/05/30 00:42:13;;;;;;;18.17;2.50;;;;;;;-146.27;76.51;83244.03;5046981;28;20361;-68
2023/05/30 00:44:38;;;;;;;12.32;2.75;;;;;;;-146.27;77.61;83189.78;5046761;28;20090;-69
2023/05/30 00:47:04;;;;;;;12.30;2.60;;;;;;;-146.27;77.15;83197.84;5046678;28;20044;-67
2023/05/30 00:49:29;;;;;;;9.85;2.60;;;;;;;-146.27;77.67;83221.94;5042171;28;20029;-68
2023/05/30 00:51:55;;;;;;;9.80;2.90;;;;;;;-146.27;77.54;83272.19;5041768;28;20033;-68
2023/05/30 00:54:22;;;;;;;18.65;3.63;;;;;;;-146.27;78.21;83227.97;5037836;28;20032;-67
2023/05/30 00:56:47;;;;;;;11.93;2.88;;;;;;;-146.27;77.80;83197.84;5043303;28;20025;-68
2023/05/30 00:59:13;;;;;;;11.23;2.47;;;;;;;-146.27;76.80;83246.06;5050571;28;20028;-68
2023/05/30 01:01:39;;;;;;;15.93;2.75;;;;;;;-146.27;76.74;83256.09;5035380;28;20473;-69
2023/05/30 01:04:04;;;;;;;20.05;3.25;;;;;;;-146.27;76.91;83177.75;5045846;28;20453;-67
2023/05/30 01:06:30;;;;;;;25.90;3.08;;;;;;;-146.27;76.68;83292.28;5048278;28;20040;-68
2023/05/30 01:09:01;;;;;;;14.38;3.53;;;;;;;-146.27;78.05;83262.13;5049622;28;20471;-68
2023/05/30 01:12:09;;;;;;;11.23;2.30;;;;;;;-146.27;78.65;83240.03;5046231;28;20493;-69
2023/05/30 01:14:40;;;;;;;13.13;2.92;;;;;;;-146.27;77.09;83240.03;5038253;28;20481;-68
2023/05/30 01:17:12;;;;;;;13.73;3.35;;;;;;;-146.27;78.52;83256.09;5040773;28;20532;-68
2023/05/30 01:20:04;;;;;;;13.57;3.22;;;;;;;-146.27;76.94;83282.22;5044578;28;20028;-68
2023/05/30 01:23:08;;;;;;;11.38;2.70;;;;;;;-146.27;78.21;83292.28;5040660;28;20029;-68
2023/05/30 01:25:59;;;;;;;11.32;2.63;;;;;;;-146.27;77.40;83278.19;5032946;28;20053;-68
2023/05/30 01:28:28;;;;;;;11.07;3.03;;;;;;;-146.27;78.15;83292.28;5032096;28;20029;-70
2023/05/30 01:30:56;;;;;;;17.25;3.63;;;;;;;-146.27;77.28;83304.31;5035803;28;20021;-68
2023/05/30 01:33:22;;;;;;;15.70;3.40;;;;;;;-146.27;77.12;83294.28;5035111;28;20029;-67
2023/05/30 01:35:47;;;;;;;18.85;3.22;;;;;;;-146.27;78.09;83284.22;5047173;28;20109;-69
2023/05/30 01:38:14;;;;;;;16.08;4.72;;;;;;;-146.27;78.07;83280.22;5045602;28;20040;-69
2023/05/30 01:40:42;;;;;;;6.45;2.35;;;;;;;-146.27;78.15;83250.06;5048473;28;20035;-69
2023/05/30 01:43:18;;;;;;;13.90;3.40;;;;;;;-146.27;77.56;83252.09;5033574;28;20422;-69
2023/05/30 01:46:05;;;;;;;12.80;3.05;;;;;;;-146.27;79.16;83260.13;5037067;28;20043;-69
2023/05/30 01:48:40;;;;;;;15.32;3.08;;;;;;;-146.27;78.15;83284.22;5044410;28;20454;-69
2023/05/30 01:51:12;;;;;;;13.50;3.33;;;;;;;-146.27;78.33;83256.09;5051498;28;20456;-70
2023/05/30 01:53:47;;;;;;;11.30;3.03;;;;;;;-146.27;78.32;83280.22;5035394;28;20113;-69
2023/05/30 01:56:14;;;;;;;9.57;2.80;;;;;;;-146.27;78.06;83288.25;5042976;28;20056;-69
2023/05/30 01:58:40;;;;;;;20.10;3.42;;;;;;;-146.27;79.23;83300.31;5040904;28;20023;-68
2023/05/30 02:01:07;;;;;;;18.80;3.35;;;;;;;-146.27;79.57;83294.28;5034760;28;20033;-70
2023/05/30 02:03:33;;;;;;;15.15;3.38;;;;;;;-146.27;79.14;83298.28;5034857;28;20064;-69
2023/05/30 02:06:00;;;;;;;12.10;3.10;;;;;;;-146.27;78.98;83256.09;5034389;28;20024;-68
2023/05/30 02:08:26;;;;;;;20.80;3.83;;;;;;;-146.27;79.30;83332.44;5046579;28;20024;-69
2023/05/30 02:10:51;;;;;;;16.85;3.03;;;;;;;-146.27;79.63;83296.28;5048975;28;20108;-67
2023/05/30 02:13:16;;;;;;;14.32;3.60;;;;;;;-146.27;80.51;83326.44;5034955;28;20501;-69
2023/05/30 02:15:42;;;;;;;13.05;3.33;;;;;;;-146.27;79.68;83304.31;5043231;28;20401;-69
2023/05/30 02:18:08;;;;;;;18.73;4.80;;;;;;;-146.27;80.70;83292.28;5047179;28;20470;-69
2023/05/30 02:20:33;;;;;;;14.57;3.47;;;;;;;-146.27;80.15;83304.31;5039640;28;20207;-67
2023/05/30 02:22:59;;;;;;;18.55;3.88;;;;;;;-146.27;80.32;83356.56;5043311;28;20463;-68
2023/05/30 02:25:24;;;;;;;12.63;4.10;;;;;;;-146.27;80.76;83330.44;5050204;28;20023;-69
2023/05/30 02:27:50;;;;;;;13.95;4.03;;;;;;;-146.27;80.64;83284.22;5040275;28;20037;-68
2023/05/30 02:30:16;;;;;;;13.18;3.85;;;;;;;-146.27;81.01;83356.56;5044961;28;20514;-68
2023/05/30 02:32:42;;;;;;;17.48;3.70;;;;;;;-146.27;81.16;83332.44;5040264;28;20029;-68
2023/05/30 02:35:08;;;;;;;11.73;3.10;;;;;;;-146.27;82.94;83312.34;5046003;28;20029;-68
2023/05/30 02:37:33;;;;;;;13.38;4.18;;;;;;;-146.27;80.96;83312.34;5050728;28;20425;-69
2023/05/30 02:39:59;;;;;;;12.40;3.70;;;;;;;-146.27;80.72;83312.34;5042171;28;20477;-69
2023/05/30 02:42:24;;;;;;;16.90;4.38;;;;;;;-146.27;82.00;83242.03;5050913;28;20388;-69
2023/05/30 02:44:49;;;;;;;19.92;3.78;;;;;;;-146.27;81.07;83280.22;5050703;28;20485;-69
2023/05/30 02:47:15;;;;;;;16.67;3.95;;;;;;;-146.27;81.66;83276.19;5052121;28;20033;-70
2023/05/30 02:49:41;;;;;;;14.55;3.50;;;;;;;-146.27;80.37;83242.03;5041168;28;20473;-69
2023/05/30 02:52:07;;;;;;;12.15;3.70;;;;;;;-146.27;81.12;83284.22;5033517;28;20078;-69
2023/05/30 02:54:32;;;;;;;11.25;4.00;;;;;;;-146.27;81.23;83232.00;5048985;28;20115;-69
2023/05/30 02:56:58;;;;;;;13.07;3.58;;;;;;;-146.27;80.42;83213.91;5037574;28;20025;-68
2023/05/30 02:59:23;;;;;;;14.95;4.07;;;;;;;-146.27;81.06;83260.13;5041500;28;20029;-68
2023/05/30 03:01:48;;;;;;;10.52;3.25;;;;;;;-146.27;81.00;83246.06;5038725;28;20021;-71
2023/05/30 03:04:14;;;;;;;8.60;3.25;;;;;;;-146.27;81.19;83256.09;5050106;28;20033;-69
2023/05/30 03:06:40;;;;;;;15.57;3.88;;;;;;;-146.27;81.03;83203.88;5046926;28;20173;-68
2023/05/30 03:09:06;;;;;;;10.50;3.60;;;;;;;-146.27;81.30;83217.94;5037878;28;20532;-69
2023/05/30 03:11:31;;;;;;;14.40;3.97;;;;;;;-146.27;81.76;83167.69;5047297;28;20132;-67
2023/05/30 03:13:56;;;;;;;19.20;5.03;;;;;;;-146.27;81.84;83203.88;5045881;28;20025;-70
2023/05/30 03:16:22;;;;;;;12.57;3.45;;;;;;;-146.27;81.57;83199.84;5052092;28;20060;-69
2023/05/30 03:18:49;;;;;;;11.82;3.80;;;;;;;-146.27;81.84;83203.88;5047863;28;20049;-69
2023/05/30 03:21:15;;;;;;;12.20;3.13;;;;;;;-146.27;80.86;83197.84;5052205;28;20032;-68
2023/05/30 03:23:40;;;;;;;11.80;4.35;;;;;;;-146.27;82.68;83183.78;5040374;28;20504;-69
2023/05/30 03:26:06;;;;;;;11.98;3.35;;;;;;;-146.27;80.94;83193.81;5040540;28;20547;-68
2023/05/30 03:28:32;;;;;;;13.45;3.70;;;;;;;-146.27;81.14;83167.69;5041650;28;20520;-68
2023/05/30 03:30:58;;;;;;;16.13;4.03;;;;;;;-146.27;81.28;83147.59;5044620;28;20025;-67
2023/05/30 03:33:23;;;;;;;11.75;3.20;;;;;;;-146.27;80.92;83179.75;5036855;28;20030;-69
2023/05/30 03:35:49;;;;;;;15.35;3.08;;;;;;;-146.27;80.81;83179.75;5047535;28;20418;-68
2023/05/30 03:38:14;;;;;;;18.48;3.42;;;;;;;-146.27;80.75;83157.66;5045864;28;20029;-67
2023/05/30 03:40:40;;;;;;;12.60;3.40;;;;;;;-146.27;79.85;83139.56;5042188;28;20316;-68
2023/05/30 03:43:05;;;;;;;11.07;3.63;;;;;;;-146.27;80.27;83133.53;5047306;28;20074;-67
2023/05/30 03:45:31;;;;;;;11.20;3.30;;;;;;;-146.27;80.50;83159.66;5054234;28;20043;-68
2023/05/30 03:47:56;;;;;;;16.27;4.30;;;;;;;-146.27;80.45;83177.75;5060758;28;20497;-68
2023/05/30 03:50:22;;;;;;;13.98;3.45;;;;;;;-146.27;80.42;83179.75;5048355;28;20115;-68
2023/05/30 03:52:47;;;;;;;19.15;3.70;;;;;;;-146.27;79.55;83141.56;5038350;28;20029;-68
2023/05/30 03:55:13;;;;;;;14.63;3.50;;;;;;;-146.27;79.66;83151.63;5050285;28;20341;-67
2023/05/30 03:57:38;;;;;;;11.63;3.47;;;;;;;-146.27;79.26;83159.66;5044779;28;20107;-68
2023/05/30 04:00:04;;;;;;;13.50;3.17;;;;;;;-146.27;79.76;83101.38;5046123;28;20059;-69
2023/05/30 04:02:29;;;;;;;16.85;3.80;;;;;;;-146.27;79.41;83177.75;5041964;28;20469;-68
2023/05/30 04:04:55;;;;;;;12.80;3.70;;;;;;;-146.27;79.26;83163.69;5037503;28;20412;-68
2023/05/30 04:07:20;;;;;;;11.13;3.58;;;;;;;-146.27;78.52;83103.41;5048851;28;20041;-70
2023/05/30 04:09:46;;;;;;;9.93;3.90;;;;;;;-146.27;78.42;83139.56;5043675;28;20024;-68
2023/05/30 04:12:11;;;;;;;7.70;3.65;;;;;;;-146.27;78.82;83107.41;5039548;28;20045;-69
2023/05/30 04:14:37;;;;;;;15.85;3.70;;;;;;;-146.27;78.57;83101.38;5034937;28;20029;-69
2023/05/30 04:17:02;;;;;;;7.25;2.97;;;;;;;-146.27;78.58;83131.53;5049081;28;20025;-69
2023/05/30 04:19:28;;;;;;;7.05;3.83;;;;;;;-146.27;78.41;83081.31;5043427;28;20545;-70
2023/05/30 04:21:53;;;;;;;10.00;3.70;;;;;;;-146.27;79.37;83119.47;5048590;28;20031;-68
2023/05/30 04:24:18;;;;;;;8.55;3.88;;;;;;;-146.27;78.91;83127.50;5046409;28;20037;-68
2023/05/30 04:26:48;;;;;;;12.93;3.38;;;;;;;-146.27;78.86;83119.47;5050583;28;20056;-68
2023/05/30 04:29:14;;;;;;;13.27;4.18;;;;;;;-146.27;78.31;83123.50;5038568;28;20030;-68
2023/05/30 04:31:39;;;;;;;10.25;3.72;;;;;;;-146.27;77.84;83135.53;5030752;28;20044;-68
2023/05/30 04:34:04;;;;;;;11.35;3.70;;;;;;;-146.27;77.67;83081.31;5041294;28;20048;-68
2023/05/30 04:36:32;;;;;;;12.45;3.30;;;;;;;-146.27;78.03;83107.41;5033772;28;20049;-69
2023/05/30 04:38:58;;;;;;;8.75;3.60;;;;;;;-146.27;79.26;83095.38;5032465;28;20039;-68
2023/05/30 04:41:24;;;;;;;6.50;3.30;;;;;;;-146.27;77.56;83079.28;5038261;28;20037;-68
2023/05/30 04:44:00;;;;;;;12.93;3.72;;;;;;;-146.27;78.21;83095.38;5043310;28;20030;-68
2023/05/30 04:46:27;;;;;;;11.45;3.63;;;;;;;-146.27;78.16;83103.41;5042866;28;20029;-70
2023/05/30 04:48:55;;;;;;;13.60;4.30;;;;;;;-146.27;78.90;83115.47;5039377;28;20056;-70
2023/05/30 04:51:22;;;;;;;16.00;3.60;;;;;;;-146.27;77.14;83121.47;5044111;28;20032;-69
2023/05/30 04:53:49;;;;;;;10.82;4.43;;;;;;;-146.27;76.77;83077.28;5034731;28;20488;-69
2023/05/30 04:56:15;;;;;;;9.57;3.80;;;;;;;-146.27;76.50;83091.34;5038793;28;21485;-68
2023/05/30 04:58:40;;;;;;;12.27;3.85;;;;;;;-146.27;75.76;83085.31;5042881;28;20059;-69
2023/05/30 05:01:09;;;;;;;13.60;3.70;;;;;;;-146.27;76.08;83055.19;5045626;28;20116;-69
2023/05/30 05:03:35;;;;;;;7.10;3.08;;;;;;;-146.27;75.26;83123.50;5034542;28;20103;-69
2023/05/30 05:06:00;;;;;;;9.20;3.38;;;;;;;-146.27;74.33;83123.50;5033996;28;20414;-70
2023/05/30 05:08:26;;;;;;;12.57;3.47;;;;;;;-146.27;74.69;83079.28;5030742;28;20095;-69
2023/05/30 05:10:51;;;;;;;10.07;3.47;;;;;;;-146.27;74.22;83107.41;5035575;28;20554;-68
2023/05/30 05:13:17;;;;;;;12.30;3.30;;;;;;;-146.27;73.98;83115.47;5036195;28;20075;-68
2023/05/30 05:15:42;;;;;;;14.88;5.65;;;;;;;-146.27;73.31;83055.19;5037685;28;20136;-69
2023/05/30 05:18:10;;;;;;;6.75;3.08;;;;;;;-146.27;72.93;83047.16;5057578;28;20496;-67
2023/05/30 05:20:35;;;;;;;10.50;3.45;;;;;;;-146.27;72.76;83069.25;5047054;28;20047;-69
2023/05/30 05:23:01;;;;;;;8.13;3.55;;;;;;;-146.27;73.18;83075.28;5032117;28;20052;-68
2023/05/30 05:25:26;;;;;;;10.05;3.03;;;;;;;-146.27;73.28;83075.28;5036416;28;20033;-69
2023/05/30 05:27:51;;;;;;;14.40;3.45;;;;;;;-146.27;72.04;83075.28;5047517;28;20028;-69
2023/05/30 05:30:17;;;;;;;16.27;4.10;;;;;;;-146.27;72.30;83059.19;5041727;28;20060;-69
2023/05/30 05:32:43;;;;;;;12.82;3.10;;;;;;;-146.27;71.88;83045.13;5042242;28;20025;-71
2023/05/30 05:35:09;;;;;;;11.35;3.17;;;;;;;-146.27;71.65;83029.06;5044513;28;20064;-69
2023/05/30 05:37:35;;;;;;;6.53;3.30;;;;;;;-146.27;71.53;83043.13;5030835;28;20040;-69
2023/05/30 05:40:04;;;;;;;8.57;3.00;;;;;;;-146.27;71.30;83059.19;5042171;28;20519;-67
2023/05/30 05:42:30;;;;;;;13.70;3.17;;;;;;;-146.27;71.07;83051.16;5049892;28;20103;-69
2023/05/30 05:44:55;;;;;;;18.20;3.30;;;;;;;-146.27;70.68;82984.88;5051580;28;20135;-68
2023/05/30 05:47:21;;;;;;;7.45;3.28;;;;;;;-146.27;71.39;83019.03;5049346;28;20062;-70
2023/05/30 05:49:46;;;;;;;8.50;3.83;;;;;;;-146.27;70.97;83031.06;5053187;28;20082;-75
2023/05/30 05:52:14;;;;;;;12.40;2.90;;;;;;;-146.27;70.08;83002.94;5053778;28;20540;-73
2023/05/30 05:54:39;;;;;;;9.30;3.00;;;;;;;-146.27;70.92;82974.81;5032632;28;20108;-72
2023/05/30 05:57:06;;;;;;;12.98;3.58;;;;;;;-146.27;70.59;82986.88;5044005;28;20587;-74
2023/05/30 05:59:31;;;;;;;9.10;2.72;;;;;;;-146.27;69.00;82960.75;5039048;28;20033;-74
2023/05/30 06:01:57;;;;;;;14.52;4.45;;;;;;;-146.27;70.10;82916.56;5051619;28;20038;-74
2023/05/30 06:04:23;;;;;;;12.80;3.03;;;;;;;-146.27;70.30;82908.50;5059873;28;20032;-74
2023/05/30 06:06:49;;;;;;;9.13;3.00;;;;;;;-146.27;69.38;82916.56;5044726;28;20055;-74
2023/05/30 06:09:15;;;;;;;13.55;2.88;;;;;;;-146.27;68.89;82870.34;5043759;28;20541;-73
2023/05/30 06:11:40;;;;;;;9.80;2.33;;;;;;;-146.27;70.23;82888.44;5046716;28;20065;-72
2023/05/30 06:14:06;;;;;;;13.55;2.90;;;;;;;-146.27;69.84;82822.13;5043099;28;20035;-73
2023/05/30 06:16:31;;;;;;;13.68;3.55;;;;;;;-146.27;69.73;82814.09;5047686;28;20070;-73
2023/05/30 06:18:56;;;;;;;9.68;3.05;;;;;;;-146.27;69.44;82802.03;5040149;28;20592;-76
2023/05/30 06:21:22;;;;;;;10.10;3.40;;;;;;;-146.27;67.89;82822.13;5048243;28;20033;-76
2023/05/30 06:23:47;;;;;;;12.40;3.17;;;;;;;-146.27;67.80;82789.97;5046758;28;20051;-78
2023/05/30 06:26:13;;;;;;;11.60;2.83;;;;;;;-146.27;68.00;82755.84;5050704;28;20025;-76
2023/05/30 06:28:38;;;;;;;13.85;3.08;;;;;;;-146.27;65.72;82783.97;5050649;28;20054;-75
2023/05/30 06:31:03;;;;;;;11.27;3.53;;;;;;;-146.27;66.95;82737.75;5040014;28;20094;-76
2023/05/30 06:33:29;;;;;;;14.02;2.85;;;;;;;-146.27;65.37;82775.91;5049637;28;20071;-73
2023/05/30 06:35:55;;;;;;;9.55;3.70;;;;;;;-146.27;66.33;82761.84;5050953;28;20500;-79
2023/05/30 06:38:20;;;;;;;10.13;2.80;;;;;;;-146.27;65.63;82777.94;5045218;28;20032;-76
2023/05/30 06:40:46;;;;;;;9.80;3.50;;;;;;;-146.27;66.76;82842.22;5040212;28;20026;-76
2023/05/30 06:43:11;;;;;;;8.40;3.45;;;;;;;-146.27;66.13;82814.09;5048074;28;20021;-76
2023/05/30 06:45:36;;;;;;;11.65;3.30;;;;;;;-146.27;65.55;82775.91;5051823;28;20033;-78
2023/05/30 06:48:02;;;;;;;10.82;3.40;;;;;;;-146.27;66.58;82777.94;5048804;28;20069;-77
2023/05/30 06:50:28;;;;;;;11.52;3.63;;;;;;;-146.27;66.75;82771.91;5052940;28;20045;-77
2023/05/30 06:52:53;;;;;;;11.18;3.25;;;;;;;-146.27;65.59;82775.91;5041903;28;20508;-76
2023/05/30 06:55:19;;;;;;;19.67;3.50;;;;;;;-146.27;65.59;82781.94;5049027;28;20086;-77
2023/05/30 06:57:44;;;;;;;15.88;3.22;;;;;;;-146.27;66.12;82783.97;5051638;28;20056;-78
2023/05/30 07:00:11;;;;;;;15.27;3.40;;;;;;;-146.27;66.23;82759.84;5046067;28;20064;-77
2023/05/30 07:02:36;;;;;;;11.88;3.38;;;;;;;-146.27;66.36;82719.66;5052615;28;20032;-75
2023/05/30 07:05:02;;;;;;;12.20;3.05;;;;;;;-146.27;65.12;82715.66;5052877;28;20218;-76
2023/05/30 07:07:27;;;;;;;16.75;3.20;;;;;;;-146.27;66.57;82707.63;5049461;28;20029;-78
2023/05/30 07:09:53;;;;;;;10.95;2.95;;;;;;;-146.27;66.57;82701.59;5049395;28;20552;-77
2023/05/30 07:12:18;;;;;;;15.93;3.58;;;;;;;-146.27;66.35;82749.81;5044956;28;20475;-76
2023/05/30 07:14:44;;;;;;;17.50;3.83;;;;;;;-146.27;65.95;82641.31;5045816;28;20423;-78
2023/05/30 07:17:09;;;;;;;13.27;3.13;;;;;;;-146.27;64.64;82693.56;5050613;28;21229;-78
2023/05/30 07:19:35;;;;;;;8.35;2.80;;;;;;;-146.27;64.88;82673.47;5042453;28;20117;-75
2023/05/30 07:22:00;;;;;;;13.70;3.13;;;;;;;-146.27;64.98;82641.31;5043036;28;20142;-76
2023/05/30 07:24:26;;;;;;;10.80;2.88;;;;;;;-146.27;64.48;82633.28;5050861;28;20028;-75
2023/05/30 07:26:51;;;;;;;13.57;3.50;;;;;;;-146.27;64.37;82643.31;5049840;28;20365;-74
2023/05/30 07:29:17;;;;;;;13.77;3.70;;;;;;;-146.27;64.92;82637.31;5043037;28;20533;-74
2023/05/30 07:31:43;;;;;;;15.93;3.97;;;;;;;-146.27;64.72;82633.28;5051346;28;20032;-74
2023/05/30 07:34:08;;;;;;;18.10;3.42;;;;;;;-146.27;64.46;82605.16;5042928;28;20041;-75
2023/05/30 07:36:34;;;;;;;11.60;3.83;;;;;;;-146.27;64.15;82597.13;5039925;28;20053;-75
2023/05/30 07:39:00;;;;;;;12.43;3.17;;;;;;;-146.27;63.62;82593.09;5040056;28;20029;-76
2023/05/30 07:41:26;;;;;;;18.67;3.47;;;;;;;-146.27;63.53;82597.13;5056031;28;20364;-77
2023/05/30 07:43:51;;;;;;;12.10;4.65;;;;;;;-146.27;64.36;82585.06;5036350;28;20037;-76
2023/05/30 07:46:17;;;;;;;14.30;3.10;;;;;;;-146.27;63.34;82577.03;5035612;28;20025;-76
2023/05/30 07:48:43;;;;;;;8.80;2.90;;;;;;;-146.27;62.30;82564.97;5050718;28;20036;-77
2023/05/30 07:51:09;;;;;;;10.95;3.47;;;;;;;-146.27;62.71;82595.13;5047387;28;20401;-76
2023/05/30 07:53:35;;;;;;;17.73;4.57;;;;;;;-146.27;63.44;82609.19;5045658;28;20017;-76
2023/05/30 07:56:00;;;;;;;12.15;3.42;;;;;;;-146.27;64.45;82579.03;5033566;28;20021;-77
2023/05/30 07:58:25;;;;;;;8.55;3.13;;;;;;;-146.27;63.08;82617.22;5041608;28;20036;-77
2023/05/30 08:00:51;;;;;;;17.38;3.72;;;;;;;-146.27;63.64;82560.97;5032022;28;20065;-76
2023/05/30 08:03:16;;;;;;;15.63;4.22;;;;;;;-146.27;63.15;82536.84;5049734;28;20021;-77
2023/05/30 08:05:42;;;;;;;13.80;3.90;;;;;;;-146.27;62.68;82532.84;5052358;28;20021;-78
2023/05/30 08:08:08;;;;;;;13.15;4.05;;;;;;;-146.27;64.07;82508.72;5051845;28;20025;-77
2023/05/30 08:10:33;;;;;;;17.08;4.05;;;;;;;-146.27;62.79;82508.72;5036761;28;20168;-77
2023/05/30 08:12:59;;;;;;;14.38;2.95;;;;;;;-146.27;62.62;82448.47;5052887;28;20128;-76
2023/05/30 08:15:26;;;;;;;14.50;3.55;;;;;;;-146.27;62.22;82400.25;5052172;28;20108;-78
2023/05/30 08:17:51;;;;;;;19.30;3.30;;;;;;;-146.27;62.00;82400.25;5050048;28;20021;-75
2023/05/30 08:20:17;;;;;;;13.80;3.78;;;;;;;-146.27;60.84;82392.22;5038242;28;20022;-76
2023/05/30 08:22:42;;;;;;;12.50;3.22;;;;;;;-146.27;61.30;82370.13;5044304;28;20017;-76
2023/05/30 08:25:08;;;;;;;14.70;3.95;;;;;;;-146.27;59.50;82325.94;5045534;28;20025;-75
2023/05/30 08:27:34;;;;;;;15.23;3.50;;;;;;;-146.27;60.37;82350.03;5040320;28;20128;-76
2023/05/30 08:30:00;;;;;;;14.75;3.78;;;;;;;-146.27;59.43;82362.09;5041112;28;20040;-75
2023/05/30 08:32:28;;;;;;;12.90;3.60;;;;;;;-146.27;60.40;82319.91;5031226;28;20026;-75
2023/05/30 08:34:53;;;;;;;14.23;4.10;;;;;;;-146.27;58.61;82331.97;5031403;28;20025;-75
2023/05/30 08:37:19;;;;;;;11.02;3.42;;;;;;;-146.27;60.17;82273.72;5031241;28;20028;-76
2023/05/30 08:39:45;;;;;;;16.83;4.10;;;;;;;-146.27;59.20;82283.75;5035553;28;20083;-76
2023/05/30 08:42:12;;;;;;;8.93;3.30;;;;;;;-146.27;57.56;82263.66;5031441;28;20473;-75
2023/05/30 08:44:39;;;;;;;12.65;3.60;;;;;;;-146.27;57.01;82261.66;5036767;28;20191;-75
2023/05/30 08:47:07;;;;;;;15.20;4.13;;;;;;;-146.27;55.85;82195.38;5046442;28;20035;-77
2023/05/30 08:49:37;;;;;;;13.00;3.67;;;;;;;-146.27;56.60;82237.53;5051560;28;20032;-75
2023/05/30 08:52:03;;;;;;;17.35;3.13;;;;;;;-146.27;56.40;82275.72;5044829;28;20056;-77
2023/05/30 08:54:36;;;;;;;11.52;3.03;;;;;;;-146.27;55.35;82263.66;5031049;28;20134;-76
2023/05/30 08:57:09;;;;;;;13.23;3.75;;;;;;;-146.27;55.73;82195.38;5033564;28;20025;-75
2023/05/30 08:59:35;;;;;;;8.33;3.20;;;;;;;-146.27;56.49;82193.34;5030844;28;20021;-77
2023/05/30 09:02:02;;;;;;;13.82;3.05;;;;;;;-146.27;56.78;82181.31;5033540;28;20283;-75
2023/05/30 09:04:29;;;;;;;15.57;3.75;;;;;;;-146.27;55.84;82151.16;5031970;28;20025;-74
2023/05/30 09:06:57;;;;;;;12.82;3.92;;;;;;;-146.27;55.14;82167.25;5045312;28;20020;-76
2023/05/30 09:09:23;;;;;;;8.73;3.28;;;;;;;-146.27;56.07;82090.91;5055204;28;20035;-75
2023/05/30 09:11:51;;;;;;;16.48;4.00;;;;;;;-146.27;55.45;82135.09;5047881;28;20049;-74
2023/05/30 09:14:16;;;;;;;18.13;3.80;;;;;;;-146.27;56.15;82086.91;5051443;28;20037;-75
2023/05/30 09:16:42;;;;;;;13.93;3.20;;;;;;;-146.27;56.07;82096.94;5069628;28;20020;-76
2023/05/30 09:19:07;;;;;;;8.40;3.08;;;;;;;-146.27;54.93;82058.78;5043532;28;20087;-75
2023/05/30 09:21:33;;;;;;;10.85;3.47;;;;;;;-146.27;55.97;81998.50;5042343;28;20413;-76
2023/05/30 09:24:04;;;;;;;11.35;3.67;;;;;;;-146.27;55.03;81958.34;5038426;28;20382;-76
2023/05/30 09:26:29;;;;;;;13.70;3.83;;;;;;;-146.27;53.95;81936.25;5032708;28;20040;-76
2023/05/30 09:28:55;;;;;;;12.45;3.55;;;;;;;-146.27;54.36;81996.50;5047778;28;20016;-76
2023/05/30 09:31:22;;;;;;;11.45;4.65;;;;;;;-146.27;55.38;81970.41;5047188;28;20060;-74
2023/05/30 09:33:50;;;;;;;16.55;3.20;;;;;;;-146.27;53.94;81894.06;5057335;28;20021;-77
2023/05/30 09:36:20;;;;;;;15.55;3.45;;;;;;;-146.27;52.31;81922.19;5048753;28;20029;-76
2023/05/30 09:38:55;;;;;;;9.80;2.75;;;;;;;-146.27;52.32;81880.00;5041417;28;20026;-76
2023/05/30 09:41:25;;;;;;;12.73;3.40;;;;;;;-146.27;52.67;81847.88;5033401;28;20128;-74
2023/05/30 09:43:54;;;;;;;17.60;3.35;;;;;;;-146.27;51.43;81789.63;5033664;28;20108;-76
2023/05/30 09:46:24;;;;;;;13.43;3.33;;;;;;;-146.27;51.08;81789.63;5035210;28;20056;-75
2023/05/30 09:48:50;;;;;;;8.82;2.92;;;;;;;-146.27;50.93;81765.53;5031506;28;20389;-75
2023/05/30 09:51:17;;;;;;;8.43;3.03;;;;;;;-146.27;52.25;81717.31;5042329;28;20028;-75
2023/05/30 09:53:56;;;;;;;10.45;3.40;;;;;;;-146.27;51.82;81733.38;5031399;28;20406;-76
2023/05/30 09:56:35;;;;;;;11.60;3.28;;;;;;;-146.27;49.51;81695.22;5043569;28;20242;-75
2023/05/30 09:59:10;;;;;;;10.48;3.28;;;;;;;-146.27;49.63;81669.13;5044264;28;20032;-75
2023/05/30 10:01:45;;;;;;;14.15;3.00;;;;;;;-146.27;49.27;81663.09;5036133;28;20030;-76
2023/05/30 10:04:15;;;;;;;7.90;3.25;;;;;;;-146.27;48.88;81701.25;5040078;28;20037;-74
2023/05/30 10:06:43;;;;;;;10.73;3.25;;;;;;;-146.27;50.53;81761.50;5037391;28;20393;-76
2023/05/30 10:09:09;;;;;;;15.25;3.10;;;;;;;-146.27;50.64;81793.66;5031336;28;20082;-75
2023/05/30 10:11:38;;;;;;;8.48;3.15;;;;;;;-146.27;51.41;81791.63;5029801;28;20187;-72
2023/05/30 10:14:03;;;;;;;14.98;3.42;;;;;;;-146.27;52.87;81797.66;5031831;28;20082;-71
2023/05/30 10:16:32;;;;;;;15.95;3.35;;;;;;;-146.27;53.75;81721.34;5032919;28;20112;-76
2023/05/30 10:19:01;;;;;;;12.07;3.72;;;;;;;-146.27;51.21;81723.34;5030689;28;20052;-74
2023/05/30 10:21:31;;;;;;;7.97;3.22;;;;;;;-146.27;51.56;81663.09;5030716;28;20390;-75
2023/05/30 10:23:58;;;;;;;13.77;3.45;;;;;;;-146.27;52.95;81641.00;5028876;28;20477;-75
2023/05/30 10:26:31;;;;;;;14.27;3.38;;;;;;;-146.27;51.97;81689.19;5043127;28;20095;-76
2023/05/30 10:29:00;;;;;;;10.27;3.67;;;;;;;-146.27;51.51;81628.94;5029760;28;20159;-77
2023/05/30 10:31:26;;;;;;;10.18;3.40;;;;;;;-146.27;52.92;81721.34;5030019;28;20103;-76
2023/05/30 10:33:52;;;;;;;10.55;4.80;;;;;;;-146.27;54.61;81693.22;5032012;28;20072;-76
2023/05/30 10:36:17;;;;;;;12.07;3.22;;;;;;;-146.27;54.42;81709.28;5031659;28;20498;-77
2023/05/30 10:39:08;;;;;;;12.68;2.85;;;;;;;-146.27;53.79;81755.47;5038535;28;20018;-75
2023/05/30 10:41:52;;;;;;;6.93;3.20;;;;;;;-146.27;55.00;81761.50;5048372;28;20045;-74
2023/05/30 10:44:17;;;;;;;5.05;2.63;;;;;;;-146.27;56.22;81745.44;5035494;28;20021;-76
2023/05/30 10:47:10;;;;;;;4.70;2.53;;;;;;;-146.27;56.56;81789.63;5039049;28;20810;-74
2023/05/30 10:49:38;;;;;;;7.47;2.53;;;;;;;-146.27;55.42;81749.47;5045378;28;20504;-75
2023/05/30 10:52:09;;;;;;;7.13;3.00;;;;;;;-146.27;56.38;81721.34;5057431;28;20021;-76
2023/05/30 10:54:36;;;;;;;7.95;2.88;;;;;;;-146.27;57.21;81817.75;5047280;28;20036;-76
2023/05/30 10:57:30;;;;;;;9.32;3.40;;;;;;;-146.27;59.20;81902.09;5044774;28;20142;-76
2023/05/30 11:00:04;;;;;;;8.10;3.40;;;;;;;-146.27;59.73;81956.34;5041882;28;20473;-77
2023/05/30 11:02:37;;;;;;;9.60;3.13;;;;;;;-146.27;61.17;81972.41;5053256;28;20032;-76
2023/05/30 11:05:08;;;;;;;6.82;3.58;;;;;;;-146.27;61.54;81930.22;5045863;28;20025;-76
2023/05/30 11:07:35;;;;;;;9.55;3.50;;;;;;;-146.27;62.06;81988.47;5042846;28;20025;-77
2023/05/30 11:10:06;;;;;;;6.15;3.63;;;;;;;-146.27;62.37;81990.47;5039476;28;20036;-77
2023/05/30 11:12:32;;;;;;;10.43;3.75;;;;;;;-146.27;62.71;82034.66;5049243;28;20052;-77